Anderson Acres, Nevada
Current Conditions -  °F | °C
As of 9:55 AM on Saturday 20 Dec 2014 (Local Time) from KRTS Reporting Station
Broken Clouds Broken Clouds  
Wind Chill: 31°   Ceiling: 2900
Heat Index: 41°   Visibility: 10mi
Dew Point: 32°   Wind: 22mph
Humidity: 70%   Direction: 260°W
Pressure: 30.12"   Gusts: 25mph
Location:  39.7378°N, 119.889°W
Report Text: KRTS 201755Z AUTO 26019G22KT 10SM BKN029 BKN036 05/00 A3012 RMK AO2
Loading
Personal Weather Stations






























Interactive Weather Map New forecast layout! Learn more

10-Day Weather Forecast

Advertisements
Track Severe Weather on mobile